createdAt,value
2023-03-01T02:18:49.821Z,26.10
2023-03-01T02:21:37.506Z,25.90
2023-03-01T02:24:22.092Z,26.00
2023-03-01T02:26:59.254Z,25.70
2023-03-01T02:29:31.360Z,25.40
2023-03-01T02:32:03.357Z,25.40
2023-03-01T02:34:34.098Z,25.70
2023-03-01T02:37:05.596Z,25.90
2023-03-01T02:39:44.520Z,26.00
2023-03-01T02:42:16.643Z,26.20
2023-03-01T02:44:46.550Z,26.30
2023-03-01T02:47:15.944Z,26.40
2023-03-01T02:49:45.330Z,26.50
2023-03-01T02:52:24.310Z,26.50
2023-03-01T02:55:05.921Z,26.70
2023-03-01T02:57:36.056Z,26.70
2023-03-01T03:00:11.461Z,26.80
2023-03-01T03:02:40.917Z,26.90
2023-03-01T03:05:12.402Z,26.80
2023-03-01T03:07:43.578Z,27.00
2023-03-01T03:10:18.387Z,26.90
2023-03-01T03:12:48.291Z,27.00
2023-03-01T03:15:18.037Z,27.10
2023-03-01T03:17:48.748Z,27.30
2023-03-01T03:20:21.885Z,27.10
2023-03-01T03:22:53.840Z,27.20
2023-03-01T03:25:23.792Z,27.30
2023-03-01T03:27:59.554Z,27.60
2023-03-01T03:30:31.208Z,27.70
2023-03-01T03:33:01.630Z,27.60
2023-03-01T03:35:38.155Z,27.80
2023-03-01T03:38:08.835Z,27.90
2023-03-01T03:40:40.068Z,27.80
2023-03-01T03:43:11.218Z,27.50
2023-03-01T03:45:41.113Z,27.20
2023-03-01T09:47:45.787Z,21.70
2023-03-01T09:50:20.905Z,21.70
2023-03-01T09:52:54.327Z,21.60
2023-03-01T09:55:42.467Z,21.50
2023-03-01T09:58:28.327Z,21.50
2023-03-01T10:00:59.489Z,21.50
2023-03-01T10:03:52.384Z,21.40
2023-03-01T10:06:35.120Z,21.30
2023-03-01T10:09:05.097Z,21.30
2023-03-01T10:11:36.781Z,21.20
2023-03-01T10:14:07.130Z,21.10
2023-03-01T10:16:56.534Z,21.10
2023-03-01T10:19:46.259Z,21.00
2023-03-01T10:22:18.696Z,20.90
2023-03-01T10:24:50.337Z,20.90
2023-03-01T10:27:26.104Z,20.80
2023-03-01T10:30:09.891Z,20.70
2023-03-01T10:32:39.664Z,20.70
2023-03-01T10:35:19.519Z,20.70
2023-03-01T10:38:07.248Z,20.70
2023-03-01T10:40:38.223Z,20.60
2023-03-01T10:43:09.392Z,20.50
2023-03-01T10:45:40.004Z,20.50
2023-03-01T12:37:22.962Z,18.90
2023-03-01T12:40:24.719Z,18.80
2023-03-01T12:43:06.234Z,18.80
2023-03-01T12:45:35.648Z,18.80
2023-03-01T12:48:11.353Z,18.70
2023-03-01T12:50:42.617Z,18.70
2023-03-01T12:53:30.036Z,18.70
2023-03-01T12:56:03.608Z,18.70
2023-03-01T12:58:48.823Z,18.60
2023-03-01T13:01:37.530Z,18.60
2023-03-01T13:04:20.448Z,18.60
2023-03-01T13:06:59.396Z,18.50
2023-03-01T13:09:28.757Z,18.60
2023-03-01T13:11:58.528Z,18.60
2023-03-01T13:14:28.270Z,18.50
2023-03-01T13:16:58.722Z,18.50
2023-03-01T13:19:31.717Z,18.50
2023-03-01T13:22:01.585Z,18.50
2023-03-01T13:24:32.799Z,18.50
2023-03-01T13:27:27.900Z,18.50
2023-03-01T13:29:59.096Z,18.40
2023-03-01T13:32:45.419Z,18.40
